Mortons Gap, Kentucky
Current Conditions -  °F | °C
As of 3:55 AM on Sunday 21 Dec 2014 (Local Time) from K2I0 Reporting Station
Haze Haze  
Wind Chill: 23°   Ceiling: Unl
Heat Index: 23°   Visibility: 4mi
Dew Point: 23°   Wind: 0mph
Humidity: 100%   Direction: NA
Pressure: 30.27"   Gusts: NA
Location:  37.24°N, 87.48°W
Report Text: K2I0 210955Z AUTO 00000KT 4SM BR CLR M05/M05 A3027 RMK AO2 T10481048
Loading
Personal Weather Stations






























Interactive Weather Map New forecast layout! Learn more

10-Day Weather Forecast

Advertisements
Track Severe Weather on mobile